sensor_id;sensor_type;location;lat;lon;timestamp;P1;durP1;ratioP1;P2;durP2;ratioP2
60002;SDS011;46322;52.018;8.702;2023-03-02T00:02:17;11.20;;;4.30;;
60002;SDS011;46322;52.018;8.702;2023-03-02T00:07:20;14.20;;;5.82;;
60002;SDS011;46322;52.018;8.702;2023-03-02T00:12:23;12.88;;;5.05;;
60002;SDS011;46322;52.018;8.702;2023-03-02T00:17:25;14.83;;;4.63;;
60002;SDS011;46322;52.018;8.702;2023-03-02T00:22:26;12.20;;;4.93;;
60002;SDS011;46322;52.018;8.702;2023-03-02T00:27:27;13.25;;;5.00;;
60002;SDS011;46322;52.018;8.702;2023-03-02T00:32:27;10.60;;;4.65;;
60002;SDS011;46322;52.018;8.702;2023-03-02T00:37:27;12.05;;;4.57;;
60002;SDS011;46322;52.018;8.702;2023-03-02T00:42:27;10.45;;;4.55;;
60002;SDS011;46322;52.018;8.702;2023-03-02T00:47:28;11.18;;;4.10;;
60002;SDS011;46322;52.018;8.702;2023-03-02T00:52:29;10.70;;;3.97;;
60002;SDS011;46322;52.018;8.702;2023-03-02T00:57:30;11.43;;;5.13;;
60002;SDS011;46322;52.018;8.702;2023-03-02T01:02:30;8.97;;;3.97;;
60002;SDS011;46322;52.018;8.702;2023-03-02T01:07:31;10.77;;;4.23;;
60002;SDS011;46322;52.018;8.702;2023-03-02T01:12:31;12.50;;;5.00;;
60002;SDS011;46322;52.018;8.702;2023-03-02T01:17:32;11.68;;;5.50;;
60002;SDS011;46322;52.018;8.702;2023-03-02T01:22:33;12.82;;;5.28;;
60002;SDS011;46322;52.018;8.702;2023-03-02T01:27:33;11.52;;;5.07;;
60002;SDS011;46322;52.018;8.702;2023-03-02T01:32:33;12.10;;;4.97;;
60002;SDS011;46322;52.018;8.702;2023-03-02T01:37:34;11.88;;;4.50;;
60002;SDS011;46322;52.018;8.702;2023-03-02T01:42:38;10.68;;;4.70;;
60002;SDS011;46322;52.018;8.702;2023-03-02T01:47:39;11.68;;;4.47;;
60002;SDS011;46322;52.018;8.702;2023-03-02T01:52:40;14.02;;;4.82;;
60002;SDS011;46322;52.018;8.702;2023-03-02T01:57:42;11.97;;;4.27;;
60002;SDS011;46322;52.018;8.702;2023-03-02T02:02:45;11.23;;;4.30;;
60002;SDS011;46322;52.018;8.702;2023-03-02T02:12:46;10.93;;;4.18;;
60002;SDS011;46322;52.018;8.702;2023-03-02T02:17:47;11.40;;;4.32;;
60002;SDS011;46322;52.018;8.702;2023-03-02T02:28:12;12.10;;;4.28;;
60002;SDS011;46322;52.018;8.702;2023-03-02T02:33:18;10.37;;;4.23;;
60002;SDS011;46322;52.018;8.702;2023-03-02T02:38:22;11.98;;;4.25;;
60002;SDS011;46322;52.018;8.702;2023-03-02T02:43:24;12.25;;;4.60;;
60002;SDS011;46322;52.018;8.702;2023-03-02T02:48:26;13.00;;;4.90;;
60002;SDS011;46322;52.018;8.702;2023-03-02T02:53:29;12.05;;;4.90;;
60002;SDS011;46322;52.018;8.702;2023-03-02T02:58:38;11.63;;;4.63;;
60002;SDS011;46322;52.018;8.702;2023-03-02T03:03:45;11.55;;;4.70;;
60002;SDS011;46322;52.018;8.702;2023-03-02T03:13:54;12.05;;;5.15;;
60002;SDS011;46322;52.018;8.702;2023-03-02T03:19:02;10.55;;;4.30;;
60002;SDS011;46322;52.018;8.702;2023-03-02T03:24:05;13.93;;;5.10;;
60002;SDS011;46322;52.018;8.702;2023-03-02T03:29:06;13.73;;;4.75;;
60002;SDS011;46322;52.018;8.702;2023-03-02T03:34:07;13.30;;;4.90;;
60002;SDS011;46322;52.018;8.702;2023-03-02T03:39:08;10.90;;;4.68;;
60002;SDS011;46322;52.018;8.702;2023-03-02T03:44:10;13.13;;;4.95;;
60002;SDS011;46322;52.018;8.702;2023-03-02T03:49:11;13.07;;;5.20;;
60002;SDS011;46322;52.018;8.702;2023-03-02T03:54:11;12.80;;;5.18;;
60002;SDS011;46322;52.018;8.702;2023-03-02T03:59:13;12.13;;;5.13;;
60002;SDS011;46322;52.018;8.702;2023-03-02T04:04:17;13.17;;;4.77;;
60002;SDS011;46322;52.018;8.702;2023-03-02T04:09:20;16.58;;;5.10;;
60002;SDS011;46322;52.018;8.702;2023-03-02T04:14:21;12.10;;;4.77;;
60002;SDS011;46322;52.018;8.702;2023-03-02T04:19:23;11.70;;;5.20;;
60002;SDS011;46322;52.018;8.702;2023-03-02T04:24:23;15.17;;;5.33;;
60002;SDS011;46322;52.018;8.702;2023-03-02T04:29:24;16.27;;;5.22;;
60002;SDS011;46322;52.018;8.702;2023-03-02T04:34:25;15.17;;;5.20;;
60002;SDS011;46322;52.018;8.702;2023-03-02T04:39:26;13.23;;;5.25;;
60002;SDS011;46322;52.018;8.702;2023-03-02T04:44:27;13.50;;;5.43;;
60002;SDS011;46322;52.018;8.702;2023-03-02T04:49:27;13.07;;;4.97;;
60002;SDS011;46322;52.018;8.702;2023-03-02T04:54:27;16.15;;;5.93;;
60002;SDS011;46322;52.018;8.702;2023-03-02T04:59:28;14.20;;;6.03;;
60002;SDS011;46322;52.018;8.702;2023-03-02T05:04:28;14.00;;;5.82;;
60002;SDS011;46322;52.018;8.702;2023-03-02T05:09:29;14.20;;;5.90;;
60002;SDS011;46322;52.018;8.702;2023-03-02T05:14:30;16.58;;;5.85;;
60002;SDS011;46322;52.018;8.702;2023-03-02T05:19:30;17.30;;;6.35;;
60002;SDS011;46322;52.018;8.702;2023-03-02T05:24:30;17.10;;;5.75;;
60002;SDS011;46322;52.018;8.702;2023-03-02T05:29:31;12.40;;;5.68;;
60002;SDS011;46322;52.018;8.702;2023-03-02T05:34:31;14.90;;;5.80;;
60002;SDS011;46322;52.018;8.702;2023-03-02T05:39:31;16.67;;;6.18;;
60002;SDS011;46322;52.018;8.702;2023-03-02T05:44:31;17.90;;;7.00;;
60002;SDS011;46322;52.018;8.702;2023-03-02T05:49:32;14.52;;;6.60;;
60002;SDS011;46322;52.018;8.702;2023-03-02T05:54:32;16.92;;;6.25;;
60002;SDS011;46322;52.018;8.702;2023-03-02T05:59:32;16.85;;;5.90;;
60002;SDS011;46322;52.018;8.702;2023-03-02T06:04:32;14.53;;;6.13;;
60002;SDS011;46322;52.018;8.702;2023-03-02T06:09:33;15.98;;;6.43;;
60002;SDS011;46322;52.018;8.702;2023-03-02T06:14:34;15.35;;;6.35;;
60002;SDS011;46322;52.018;8.702;2023-03-02T06:19:34;18.17;;;6.57;;
60002;SDS011;46322;52.018;8.702;2023-03-02T06:24:35;17.27;;;6.47;;
60002;SDS011;46322;52.018;8.702;2023-03-02T06:29:35;15.63;;;6.40;;
60002;SDS011;46322;52.018;8.702;2023-03-02T06:34:35;16.83;;;6.78;;
60002;SDS011;46322;52.018;8.702;2023-03-02T06:39:36;17.60;;;7.20;;
60002;SDS011;46322;52.018;8.702;2023-03-02T06:44:36;15.47;;;6.80;;
60002;SDS011;46322;52.018;8.702;2023-03-02T06:49:36;14.18;;;6.78;;
60002;SDS011;46322;52.018;8.702;2023-03-02T06:54:36;16.70;;;6.90;;
60002;SDS011;46322;52.018;8.702;2023-03-02T07:04:38;22.58;;;8.90;;
60002;SDS011;46322;52.018;8.702;2023-03-02T07:09:38;18.07;;;7.90;;
60002;SDS011;46322;52.018;8.702;2023-03-02T07:19:38;20.30;;;7.95;;
60002;SDS011;46322;52.018;8.702;2023-03-02T07:24:39;13.37;;;6.30;;
60002;SDS011;46322;52.018;8.702;2023-03-02T07:29:39;17.95;;;9.07;;
60002;SDS011;46322;52.018;8.702;2023-03-02T07:34:39;17.67;;;8.52;;
60002;SDS011;46322;52.018;8.702;2023-03-02T07:39:40;23.58;;;9.73;;
60002;SDS011;46322;52.018;8.702;2023-03-02T07:44:40;20.63;;;8.70;;
60002;SDS011;46322;52.018;8.702;2023-03-02T07:49:41;19.95;;;8.77;;
60002;SDS011;46322;52.018;8.702;2023-03-02T07:54:41;25.27;;;10.80;;
60002;SDS011;46322;52.018;8.702;2023-03-02T07:59:42;22.35;;;8.95;;
60002;SDS011;46322;52.018;8.702;2023-03-02T08:04:42;19.20;;;7.80;;
60002;SDS011;46322;52.018;8.702;2023-03-02T08:09:43;21.10;;;9.70;;
60002;SDS011;46322;52.018;8.702;2023-03-02T08:14:43;24.60;;;9.57;;
60002;SDS011;46322;52.018;8.702;2023-03-02T08:24:44;20.13;;;9.23;;
60002;SDS011;46322;52.018;8.702;2023-03-02T08:29:44;23.83;;;9.20;;
60002;SDS011;46322;52.018;8.702;2023-03-02T08:34:44;20.13;;;8.53;;
60002;SDS011;46322;52.018;8.702;2023-03-02T08:39:45;25.60;;;10.80;;
60002;SDS011;46322;52.018;8.702;2023-03-02T08:44:45;22.00;;;8.38;;
60002;SDS011;46322;52.018;8.702;2023-03-02T08:49:58;25.05;;;10.25;;
60002;SDS011;46322;52.018;8.702;2023-03-02T08:54:59;23.77;;;10.95;;
60002;SDS011;46322;52.018;8.702;2023-03-02T09:00:11;23.55;;;10.40;;
60002;SDS011;46322;52.018;8.702;2023-03-02T09:05:11;21.07;;;8.50;;
60002;SDS011;46322;52.018;8.702;2023-03-02T09:10:13;17.98;;;7.72;;
60002;SDS011;46322;52.018;8.702;2023-03-02T09:15:14;22.60;;;10.05;;
60002;SDS011;46322;52.018;8.702;2023-03-02T09:25:29;18.20;;;6.97;;
60002;SDS011;46322;52.018;8.702;2023-03-02T09:30:49;24.27;;;9.52;;
60002;SDS011;46322;52.018;8.702;2023-03-02T09:35:50;25.40;;;9.45;;
60002;SDS011;46322;52.018;8.702;2023-03-02T09:46:17;26.58;;;10.85;;
60002;SDS011;46322;52.018;8.702;2023-03-02T09:56:40;23.77;;;10.52;;
60002;SDS011;46322;52.018;8.702;2023-03-02T10:01:45;27.20;;;11.18;;
60002;SDS011;46322;52.018;8.702;2023-03-02T10:06:55;28.33;;;11.30;;
60002;SDS011;46322;52.018;8.702;2023-03-02T10:12:00;22.27;;;9.50;;
60002;SDS011;46322;52.018;8.702;2023-03-02T10:17:18;22.15;;;9.02;;
60002;SDS011;46322;52.018;8.702;2023-03-02T10:27:44;24.10;;;9.88;;
60002;SDS011;46322;52.018;8.702;2023-03-02T10:37:54;25.33;;;9.90;;
60002;SDS011;46322;52.018;8.702;2023-03-02T10:42:58;22.38;;;8.85;;
60002;SDS011;46322;52.018;8.702;2023-03-02T11:03:21;22.47;;;9.53;;
60002;SDS011;46322;52.018;8.702;2023-03-02T11:13:28;22.88;;;9.65;;
60002;SDS011;46322;52.018;8.702;2023-03-02T11:34:31;20.20;;;8.97;;
60002;SDS011;46322;52.018;8.702;2023-03-02T15:01:57;24.63;;;13.50;;
60002;SDS011;46322;52.018;8.702;2023-03-02T15:06:59;26.90;;;13.77;;
60002;SDS011;46322;52.018;8.702;2023-03-02T15:11:59;24.63;;;12.13;;
60002;SDS011;46322;52.018;8.702;2023-03-02T15:16:59;29.00;;;14.80;;
60002;SDS011;46322;52.018;8.702;2023-03-02T15:22:00;23.10;;;11.60;;
60002;SDS011;46322;52.018;8.702;2023-03-02T15:32:00;22.02;;;10.50;;
60002;SDS011;46322;52.018;8.702;2023-03-02T15:37:00;23.90;;;11.48;;
60002;SDS011;46322;52.018;8.702;2023-03-02T15:52:01;21.97;;;10.30;;
60002;SDS011;46322;52.018;8.702;2023-03-02T16:07:02;23.53;;;10.87;;
60002;SDS011;46322;52.018;8.702;2023-03-02T16:17:03;25.60;;;11.02;;
60002;SDS011;46322;52.018;8.702;2023-03-02T16:22:03;29.17;;;12.83;;
60002;SDS011;46322;52.018;8.702;2023-03-02T16:27:04;30.08;;;12.50;;
60002;SDS011;46322;52.018;8.702;2023-03-02T16:37:04;29.10;;;11.35;;
60002;SDS011;46322;52.018;8.702;2023-03-02T16:42:04;31.13;;;11.53;;
60002;SDS011;46322;52.018;8.702;2023-03-02T16:47:05;26.33;;;10.23;;
60002;SDS011;46322;52.018;8.702;2023-03-02T17:32:07;33.22;;;12.48;;
60002;SDS011;46322;52.018;8.702;2023-03-02T17:42:08;39.55;;;14.65;;
60002;SDS011;46322;52.018;8.702;2023-03-02T17:47:08;35.87;;;13.37;;
60002;SDS011;46322;52.018;8.702;2023-03-02T17:52:08;40.03;;;15.32;;
60002;SDS011;46322;52.018;8.702;2023-03-02T17:57:09;40.72;;;14.60;;
60002;SDS011;46322;52.018;8.702;2023-03-02T18:02:10;40.30;;;14.57;;
60002;SDS011;46322;52.018;8.702;2023-03-02T18:07:11;37.83;;;13.80;;
60002;SDS011;46322;52.018;8.702;2023-03-02T18:12:12;33.22;;;12.52;;
60002;SDS011;46322;52.018;8.702;2023-03-02T18:17:12;37.22;;;13.35;;
60002;SDS011;46322;52.018;8.702;2023-03-02T18:22:12;33.97;;;12.30;;
60002;SDS011;46322;52.018;8.702;2023-03-02T18:27:14;33.53;;;12.15;;
60002;SDS011;46322;52.018;8.702;2023-03-02T18:32:14;38.87;;;11.73;;
60002;SDS011;46322;52.018;8.702;2023-03-02T18:37:15;32.10;;;11.73;;
60002;SDS011;46322;52.018;8.702;2023-03-02T18:42:15;36.67;;;13.20;;
60002;SDS011;46322;52.018;8.702;2023-03-02T18:47:16;31.37;;;12.33;;
60002;SDS011;46322;52.018;8.702;2023-03-02T18:52:17;35.72;;;12.85;;
60002;SDS011;46322;52.018;8.702;2023-03-02T18:57:18;30.70;;;11.87;;
60002;SDS011;46322;52.018;8.702;2023-03-02T19:02:18;36.75;;;12.23;;
60002;SDS011;46322;52.018;8.702;2023-03-02T19:07:19;30.83;;;11.53;;
60002;SDS011;46322;52.018;8.702;2023-03-02T19:12:19;32.47;;;11.00;;
60002;SDS011;46322;52.018;8.702;2023-03-02T19:17:20;27.48;;;11.13;;
60002;SDS011;46322;52.018;8.702;2023-03-02T19:22:21;35.53;;;11.27;;
60002;SDS011;46322;52.018;8.702;2023-03-02T19:32:21;33.13;;;11.63;;
60002;SDS011;46322;52.018;8.702;2023-03-02T19:37:22;31.95;;;11.50;;
60002;SDS011;46322;52.018;8.702;2023-03-02T19:42:22;37.92;;;13.00;;
60002;SDS011;46322;52.018;8.702;2023-03-02T19:47:22;34.87;;;11.67;;
60002;SDS011;46322;52.018;8.702;2023-03-02T19:52:22;30.65;;;12.32;;
60002;SDS011;46322;52.018;8.702;2023-03-02T19:57:23;39.40;;;12.23;;
60002;SDS011;46322;52.018;8.702;2023-03-02T20:02:23;31.10;;;11.23;;
60002;SDS011;46322;52.018;8.702;2023-03-02T20:07:23;35.30;;;12.52;;
60002;SDS011;46322;52.018;8.702;2023-03-02T20:17:24;33.35;;;12.27;;
60002;SDS011;46322;52.018;8.702;2023-03-02T20:22:24;34.05;;;11.95;;
60002;SDS011;46322;52.018;8.702;2023-03-02T20:27:30;34.63;;;11.90;;
60002;SDS011;46322;52.018;8.702;2023-03-02T20:32:31;36.45;;;12.55;;
60002;SDS011;46322;52.018;8.702;2023-03-02T20:37:31;33.33;;;11.40;;
60002;SDS011;46322;52.018;8.702;2023-03-02T20:42:32;37.50;;;13.65;;
60002;SDS011;46322;52.018;8.702;2023-03-02T20:47:32;41.33;;;13.90;;
60002;SDS011;46322;52.018;8.702;2023-03-02T20:52:32;41.43;;;13.97;;
60002;SDS011;46322;52.018;8.702;2023-03-02T20:57:33;40.73;;;13.83;;
60002;SDS011;46322;52.018;8.702;2023-03-02T21:02:33;38.60;;;13.07;;
60002;SDS011;46322;52.018;8.702;2023-03-02T21:07:34;39.78;;;12.52;;
60002;SDS011;46322;52.018;8.702;2023-03-02T21:12:34;37.80;;;12.77;;
60002;SDS011;46322;52.018;8.702;2023-03-02T21:17:35;39.07;;;13.93;;
60002;SDS011;46322;52.018;8.702;2023-03-02T21:22:35;33.17;;;11.13;;
60002;SDS011;46322;52.018;8.702;2023-03-02T21:27:36;30.45;;;10.38;;
60002;SDS011;46322;52.018;8.702;2023-03-02T21:32:37;32.37;;;10.93;;
60002;SDS011;46322;52.018;8.702;2023-03-02T21:37:39;36.83;;;11.40;;
